Time;durP1;ratioP1;P1;durP2;ratioP2;P2;SDS_P1;SDS_P2;PMS_P1;PMS_P2;Temp;Humidity;BMP_temperature;BMP_pressure;BME280_temperature;BME280_humidity;BME280_pressure;Samples;Min_cycle;Max_cycle;Signal;HPM_P1;HPM_P2
2023/01/26 00:02:23;;;;;;;1.20;0.70;;;;;;;5.40;76.04;101472.53;4942678;28;20057;-73
2023/01/26 00:04:49;;;;;;;2.78;0.65;;;;;;;5.43;75.93;101476.88;4944214;28;20054;-74
2023/01/26 00:07:16;;;;;;;2.53;0.90;;;;;;;5.42;76.04;101481.19;4944547;28;20047;-74
2023/01/26 00:09:43;;;;;;;2.38;0.60;;;;;;;5.42;76.13;101465.66;4942967;28;20055;-74
2023/01/26 00:12:10;;;;;;;1.77;0.77;;;;;;;5.41;76.02;101464.78;4942317;28;20061;-74
2023/01/26 00:14:49;;;;;;;1.17;0.80;;;;;;;5.37;76.18;101449.16;4944682;28;20057;-73
2023/01/26 00:17:24;;;;;;;1.45;0.75;;;;;;;5.34;76.16;101443.94;4941817;28;20047;-73
2023/01/26 00:19:56;;;;;;;4.00;0.70;;;;;;;5.38;76.22;101456.13;4942577;28;20138;-73
2023/01/26 00:22:24;;;;;;;2.03;1.13;;;;;;;5.39;76.18;101466.47;4941398;28;20130;-74
2023/01/26 00:24:51;;;;;;;1.73;0.90;;;;;;;5.39;76.12;101475.97;4942962;28;20040;-73
2023/01/26 00:27:18;;;;;;;3.38;1.02;;;;;;;5.39;76.16;101460.44;4943882;28;20049;-74
2023/01/26 00:29:45;;;;;;;1.00;0.60;;;;;;;5.38;76.21;101469.06;4941554;28;20050;-73
2023/01/26 00:32:12;;;;;;;1.08;0.75;;;;;;;5.25;76.28;101446.41;4943957;28;20050;-73
2023/01/26 00:34:40;;;;;;;3.03;1.08;;;;;;;5.39;76.25;101475.97;4937029;28;20047;-73
2023/01/26 00:37:07;;;;;;;2.10;0.70;;;;;;;5.33;76.37;101469.00;4941997;28;20051;-74
2023/01/26 00:39:34;;;;;;;2.63;0.93;;;;;;;5.36;76.24;101471.63;4940744;28;20047;-73
2023/01/26 00:42:08;;;;;;;2.50;1.33;;;;;;;5.37;76.58;101475.94;4940797;28;20053;-73
2023/01/26 00:44:37;;;;;;;2.47;1.37;;;;;;;5.37;76.20;101478.53;4944760;28;20058;-73
2023/01/26 00:47:04;;;;;;;2.83;1.75;;;;;;;5.36;76.14;101478.53;4943604;28;20054;-73
2023/01/26 00:49:31;;;;;;;1.52;0.93;;;;;;;5.36;76.24;101491.47;4943785;28;20058;-74
2023/01/26 00:52:00;;;;;;;1.80;0.77;;;;;;;5.35;76.36;101494.91;4944922;28;20416;-74
2023/01/26 00:54:27;;;;;;;2.90;1.08;;;;;;;5.25;76.42;101472.31;4942304;29;20051;-74
2023/01/26 00:56:54;;;;;;;2.55;0.90;;;;;;;5.36;76.41;101483.72;4940967;28;20052;-73
2023/01/26 00:59:21;;;;;;;1.60;0.95;;;;;;;5.31;76.38;101464.63;4940116;28;20052;-74
2023/01/26 01:01:48;;;;;;;2.47;0.90;;;;;;;5.32;76.25;101459.50;4941207;28;20050;-73
2023/01/26 01:04:16;;;;;;;2.35;1.15;;;;;;;5.32;76.36;101464.66;4938711;28;20054;-74
2023/01/26 01:06:43;;;;;;;2.15;1.02;;;;;;;5.30;76.37;101463.78;4942104;28;20048;-75
2023/01/26 01:09:12;;;;;;;5.18;0.75;;;;;;;5.33;76.28;101481.06;4943927;28;20075;-73
2023/01/26 01:11:39;;;;;;;2.72;1.05;;;;;;;5.36;76.28;101481.97;4946354;28;20410;-74
2023/01/26 01:14:06;;;;;;;1.35;1.13;;;;;;;5.35;76.46;101480.25;4936601;28;20045;-73
2023/01/26 01:16:33;;;;;;;3.25;1.10;;;;;;;5.37;76.47;101481.13;4943450;29;20431;-73
2023/01/26 01:19:00;;;;;;;2.17;1.20;;;;;;;5.35;76.45;101474.19;4943428;28;20051;-75
2023/01/26 01:21:27;;;;;;;2.95;1.25;;;;;;;5.37;76.50;101475.06;4942494;28;20153;-73
2023/01/26 01:23:54;;;;;;;4.03;2.08;;;;;;;5.35;76.45;101476.78;4938273;28;20051;-74
2023/01/26 01:26:22;;;;;;;2.45;1.40;;;;;;;5.38;76.25;101482.03;4942352;28;20047;-73
2023/01/26 01:28:53;;;;;;;2.70;1.45;;;;;;;5.39;76.50;101481.16;4944390;28;20039;-73
2023/01/26 01:31:20;;;;;;;2.20;1.35;;;;;;;5.38;76.41;101476.84;4940972;28;20131;-73
2023/01/26 01:33:46;;;;;;;3.63;1.70;;;;;;;5.35;76.42;101474.19;4937715;28;20065;-74
2023/01/26 01:36:15;;;;;;;2.83;1.25;;;;;;;5.37;76.55;101475.06;4938561;28;20052;-73
2023/01/26 01:38:44;;;;;;;1.90;1.40;;;;;;;5.34;76.57;101473.31;4939441;28;20171;-74
2023/01/26 01:41:11;;;;;;;2.05;1.15;;;;;;;5.32;76.53;101471.53;4941054;28;20047;-73
2023/01/26 01:43:40;;;;;;;3.22;1.40;;;;;;;5.37;76.57;101483.72;4938048;28;20419;-73
2023/01/26 01:46:11;;;;;;;2.53;1.08;;;;;;;5.37;76.51;101490.63;4943902;28;20043;-74
2023/01/26 01:48:47;;;;;;;1.98;1.08;;;;;;;5.35;76.51;101492.31;4942036;28;20051;-73
2023/01/26 01:51:16;;;;;;;;;;;;;;;5.37;76.34;101493.22;4939600;28;20066;-74
2023/01/26 01:53:47;;;;;;;3.53;1.20;;;;;;;5.34;76.49;101493.16;4941384;28;19930;-73
2023/01/26 01:56:20;;;;;;;3.70;1.25;;;;;;;5.32;76.48;101481.91;4942207;28;20043;-73
2023/01/26 01:58:51;;;;;;;3.33;1.33;;;;;;;5.24;76.71;101479.22;4943046;28;20054;-73
2023/01/26 02:01:18;;;;;;;2.80;1.70;;;;;;;5.36;76.84;101496.66;4941629;28;20051;-73
2023/01/26 02:03:47;;;;;;;3.15;1.65;;;;;;;5.35;76.54;101487.13;4942815;28;20058;-74
2023/01/26 02:06:16;;;;;;;6.82;1.73;;;;;;;5.27;76.72;101479.28;4940859;28;20043;-74
2023/01/26 02:08:46;;;;;;;1.70;1.20;;;;;;;5.34;76.58;101491.44;4937337;28;20634;-73
2023/01/26 02:11:16;;;;;;;3.42;1.58;;;;;;;5.34;76.76;101499.22;4941216;28;20066;-73
2023/01/26 02:13:46;;;;;;;2.50;1.45;;;;;;;5.34;76.57;101498.34;4942072;28;20058;-73
2023/01/26 02:16:14;;;;;;;3.53;1.50;;;;;;;5.32;76.67;101494.84;4943154;29;20047;-73
2023/01/26 02:18:41;;;;;;;4.03;1.67;;;;;;;5.28;76.74;101493.09;4942739;28;20047;-74
2023/01/26 02:21:11;;;;;;;2.38;1.20;;;;;;;5.32;76.69;101492.28;4943005;28;20058;-73
2023/01/26 02:23:48;;;;;;;5.05;1.92;;;;;;;5.34;76.78;101488.00;4938468;28;20050;-73
2023/01/26 02:26:20;;;;;;;3.58;1.52;;;;;;;5.34;76.79;101483.69;4935594;28;20054;-73
2023/01/26 02:28:47;;;;;;;5.32;2.20;;;;;;;5.30;76.77;101486.22;4938589;28;20055;-72
2023/01/26 02:31:15;;;;;;;2.97;1.38;;;;;;;5.33;76.89;101486.25;4941348;28;20429;-73
2023/01/26 02:33:43;;;;;;;4.43;1.90;;;;;;;5.35;76.63;101484.53;4941590;28;20058;-73
2023/01/26 02:36:18;;;;;;;3.35;1.52;;;;;;;5.35;76.59;101479.34;4937172;28;20044;-74
2023/01/26 02:38:51;;;;;;;3.03;1.52;;;;;;;5.34;76.87;101475.03;4939147;28;20154;-75
2023/01/26 02:44:00;;;;;;;2.75;1.42;;;;;;;5.33;76.83;101487.13;4938262;28;20047;-73
2023/01/26 02:46:27;;;;;;;3.00;1.77;;;;;;;5.35;76.76;101490.63;4940460;29;20050;-74
2023/01/26 02:51:38;;;;;;;3.13;2.08;;;;;;;5.29;76.58;101482.72;4941900;28;20065;-74
2023/01/26 02:54:05;;;;;;;2.75;1.70;;;;;;;5.34;76.81;101488.84;4941664;28;20497;-73
2023/01/26 02:56:32;;;;;;;2.53;1.80;;;;;;;5.36;76.94;101491.47;4941132;29;20047;-74
2023/01/26 02:58:59;;;;;;;4.57;2.50;;;;;;;5.35;77.02;101495.81;4937503;28;20565;-74
2023/01/26 03:01:26;;;;;;;2.55;1.60;;;;;;;5.35;76.84;101494.91;4938209;28;20048;-73
2023/01/26 03:03:53;;;;;;;4.35;1.60;;;;;;;5.33;76.91;101492.31;4936345;28;20053;-74
2023/01/26 03:06:20;;;;;;;3.55;1.40;;;;;;;5.36;76.91;101507.03;4935748;28;20049;-74
2023/01/26 03:08:47;;;;;;;5.60;2.00;;;;;;;5.34;76.83;101500.94;4939184;28;20047;-73
2023/01/26 03:11:13;;;;;;;2.75;1.75;;;;;;;5.36;77.05;101501.84;4940063;28;20070;-74
2023/01/26 03:13:42;;;;;;;3.92;1.88;;;;;;;5.35;76.94;101488.03;4941267;28;20071;-73
2023/01/26 03:16:10;;;;;;;2.25;1.50;;;;;;;5.26;76.99;101476.66;4940084;28;20051;-73
2023/01/26 03:29:41;;;;;;;3.65;2.05;;;;;;;5.36;76.85;101499.25;4946700;28;20066;-76
2023/01/26 03:32:08;;;;;;;2.80;1.48;;;;;;;5.27;76.82;101491.34;4948847;28;20047;-76
2023/01/26 03:34:36;;;;;;;2.67;1.52;;;;;;;5.37;76.96;101508.75;4940577;28;20424;-76
2023/01/26 03:37:02;;;;;;;3.10;1.67;;;;;;;5.36;76.93;101510.47;4943832;28;20151;-76
2023/01/26 03:56:20;;;;;;;2.75;1.42;;;;;;;5.35;77.10;101505.25;4941544;28;20601;-72
2023/01/26 03:58:50;;;;;;;4.00;2.05;;;;;;;5.35;77.02;101519.13;4942584;28;20054;-72
2023/01/26 04:01:24;;;;;;;3.88;1.88;;;;;;;5.34;77.10;101508.72;4943807;28;20100;-72
2023/01/26 04:09:22;;;;;;;;;;;;;;;5.34;76.91;101514.75;4945658;28;20047;-72
2023/01/26 04:11:49;;;;;;;3.65;2.70;;;;;;;5.33;77.04;101501.81;4938845;28;19926;-72
2023/01/26 04:22:43;;;;;;;8.95;3.72;;;;;;;5.34;77.18;101524.25;4947242;28;20129;-73
2023/01/26 04:25:13;;;;;;;7.20;3.03;;;;;;;5.34;77.50;101525.13;4944762;28;20079;-72
2023/01/26 04:27:40;;;;;;;4.40;2.35;;;;;;;5.33;77.28;101525.97;4940543;28;20051;-72
2023/01/26 04:30:10;;;;;;;2.90;2.03;;;;;;;5.35;77.20;101533.75;4941573;28;20051;-72
2023/01/26 04:32:39;;;;;;;4.18;2.63;;;;;;;5.36;77.39;101535.53;4942805;28;20701;-73
2023/01/26 04:35:07;;;;;;;7.75;2.95;;;;;;;5.29;77.39;101523.31;4939076;28;20063;-72
2023/01/26 04:37:34;;;;;;;5.15;2.22;;;;;;;5.32;77.20;101526.84;4942634;28;20051;-72
2023/01/26 04:40:01;;;;;;;5.03;2.85;;;;;;;5.35;77.39;101537.25;4942307;28;20050;-73
2023/01/26 04:42:28;;;;;;;3.58;2.05;;;;;;;5.36;77.47;101538.97;4939638;28;20055;-73
2023/01/26 04:44:55;;;;;;;5.25;2.25;;;;;;;5.36;77.09;101543.31;4941479;28;20051;-72
2023/01/26 04:47:22;;;;;;;5.93;3.28;;;;;;;5.37;77.31;101540.72;4943638;28;20048;-72
2023/01/26 04:49:50;;;;;;;4.72;2.67;;;;;;;5.38;77.13;101539.03;4942838;28;20416;-72
2023/01/26 04:52:17;;;;;;;6.43;2.50;;;;;;;5.29;77.08;101524.19;4941148;28;20044;-73
2023/01/26 04:54:44;;;;;;;7.85;2.25;;;;;;;5.39;77.34;101540.75;4940326;28;20057;-72
2023/01/26 04:57:10;;;;;;;4.47;2.42;;;;;;;5.39;77.14;101538.16;4944603;28;20058;-72
2023/01/26 04:59:38;;;;;;;4.22;2.25;;;;;;;5.40;77.19;101542.47;4941576;28;20059;-73
2023/01/26 05:02:05;;;;;;;3.60;2.05;;;;;;;5.40;77.15;101545.06;4941976;28;20062;-73
2023/01/26 05:04:32;;;;;;;4.15;2.60;;;;;;;5.40;77.31;101550.25;4937146;29;20075;-73
2023/01/26 05:07:00;;;;;;;4.43;2.70;;;;;;;5.40;77.30;101555.44;4941115;28;20509;-73
2023/01/26 05:09:27;;;;;;;5.53;3.33;;;;;;;5.40;77.31;101555.44;4940993;28;20052;-72
2023/01/26 05:12:31;;;;;;;4.05;2.22;;;;;;;5.40;77.35;101552.84;4942506;28;20398;-73
2023/01/26 05:14:40;;;;;;;4.78;2.33;;;;;;;5.41;77.28;101552.03;4935650;28;20473;-73
2023/01/26 05:17:07;;;;;;;5.47;2.63;;;;;;;5.41;77.21;101559.78;4942979;28;20423;-72
2023/01/26 05:19:34;;;;;;;10.00;2.85;;;;;;;5.40;77.22;101560.63;4943199;28;20043;-73
2023/01/26 05:22:02;;;;;;;6.85;2.45;;;;;;;5.39;77.22;101564.06;4939928;28;20132;-73
2023/01/26 05:24:29;;;;;;;5.25;2.28;;;;;;;5.39;77.30;101570.13;4941259;28;20047;-73
2023/01/26 05:27:19;;;;;;;4.88;2.58;;;;;;;5.41;77.19;101570.16;4944537;29;20054;-72
2023/01/26 05:29:43;;;;;;;7.50;2.95;;;;;;;5.41;77.18;101570.16;4941171;28;20056;-73
2023/01/26 05:32:10;;;;;;;5.47;2.58;;;;;;;5.41;77.13;101577.94;4940870;29;20053;-72
2023/01/26 05:34:37;;;;;;;2.70;1.92;;;;;;;5.41;76.95;101578.78;4939128;28;20058;-73
2023/01/26 05:37:05;;;;;;;5.32;2.50;;;;;;;5.41;77.25;101580.53;4937314;29;20054;-73
2023/01/26 05:39:32;;;;;;;3.53;1.73;;;;;;;5.41;77.20;101588.28;4938930;29;20062;-72
2023/01/26 05:41:59;;;;;;;3.63;2.00;;;;;;;5.41;77.27;101590.88;4937399;29;20039;-72
2023/01/26 05:44:26;;;;;;;3.65;2.28;;;;;;;5.41;77.28;101590.88;4935385;28;20384;-73
2023/01/26 05:46:52;;;;;;;7.65;2.17;;;;;;;5.41;77.18;101601.25;4935548;29;20047;-73
2023/01/26 05:49:19;;;;;;;3.97;2.33;;;;;;;5.40;77.17;101612.44;4939303;29;20047;-72
2023/01/26 05:51:46;;;;;;;3.03;1.88;;;;;;;5.40;77.08;101617.63;4940695;28;20044;-73
2023/01/26 05:54:14;;;;;;;4.05;2.25;;;;;;;5.37;77.27;101613.25;4939756;28;20052;-73
2023/01/26 05:56:41;;;;;;;3.15;1.85;;;;;;;5.39;77.23;101618.47;4939680;28;20049;-73
2023/01/26 05:59:08;;;;;;;5.78;2.28;;;;;;;5.39;77.14;101621.06;4943192;29;20040;-74
2023/01/26 06:01:35;;;;;;;4.97;1.77;;;;;;;5.40;77.10;101625.41;4942344;28;20420;-74
2023/01/26 06:04:02;;;;;;;3.92;2.53;;;;;;;5.39;77.34;101634.88;4941135;28;20047;-73
2023/01/26 06:06:29;;;;;;;5.82;2.38;;;;;;;5.39;77.10;101637.47;4942788;28;20039;-73
2023/01/26 06:08:57;;;;;;;4.65;1.90;;;;;;;5.39;77.19;101632.31;4939714;28;20072;-73
2023/01/26 06:11:25;;;;;;;2.83;1.75;;;;;;;5.39;77.21;101637.47;4941245;29;20053;-72
2023/01/26 06:13:52;;;;;;;4.03;1.90;;;;;;;5.39;77.31;101640.06;4937754;28;20043;-73
2023/01/26 06:16:19;;;;;;;3.25;2.13;;;;;;;5.40;77.29;101656.47;4939612;29;20051;-73
2023/01/26 06:18:48;;;;;;;5.47;1.95;;;;;;;5.40;77.34;101657.34;4937558;28;20564;-73
2023/01/26 06:21:15;;;;;;;3.65;2.10;;;;;;;5.39;77.18;101655.63;4940574;29;20051;-73
2023/01/26 06:23:42;;;;;;;4.57;2.22;;;;;;;5.40;77.18;101665.13;4940921;29;20050;-73
2023/01/26 06:26:08;;;;;;;2.20;1.70;;;;;;;5.38;77.35;101668.56;4940696;28;20039;-73
2023/01/26 06:28:37;;;;;;;2.88;1.77;;;;;;;5.40;77.29;101666.84;4941580;29;20071;-73
2023/01/26 06:31:05;;;;;;;4.20;1.95;;;;;;;5.41;77.25;101676.38;4939509;28;20047;-73
2023/01/26 06:33:34;;;;;;;3.45;1.85;;;;;;;5.39;77.40;101676.34;4939708;29;20048;-73
2023/01/26 06:36:02;;;;;;;2.75;2.00;;;;;;;5.37;77.18;101675.44;4938388;28;20043;-73
2023/01/26 06:38:28;;;;;;;3.17;1.83;;;;;;;5.39;77.13;101678.06;4939281;28;20044;-74
2023/01/26 06:40:59;;;;;;;2.58;1.50;;;;;;;5.40;77.03;101679.81;4940327;28;20053;-73
2023/01/26 06:43:26;;;;;;;7.35;2.90;;;;;;;5.40;77.24;101690.16;4942824;28;20055;-72
2023/01/26 06:45:55;;;;;;;6.20;2.35;;;;;;;5.39;77.11;101693.63;4939972;28;20043;-72
2023/01/26 06:48:22;;;;;;;9.40;4.07;;;;;;;5.38;77.21;101694.47;4942579;28;20051;-73
2023/01/26 06:50:51;;;;;;;3.75;2.15;;;;;;;5.37;77.07;101700.47;4936679;29;20408;-72
2023/01/26 06:53:33;;;;;;;8.38;2.30;;;;;;;5.37;77.15;101710.84;4925497;28;20043;-72
2023/01/26 06:56:00;;;;;;;3.92;2.40;;;;;;;5.36;77.21;101711.69;4947744;28;20071;-75
2023/01/26 06:58:27;;;;;;;4.03;2.08;;;;;;;5.36;77.16;101715.16;4941763;28;20054;-73
2023/01/26 07:00:56;;;;;;;4.72;1.88;;;;;;;5.36;77.16;101714.28;4944413;28;20464;-73
2023/01/26 07:03:23;;;;;;;8.07;3.03;;;;;;;5.35;77.17;101715.13;4949762;28;20058;-73
2023/01/26 07:05:50;;;;;;;5.50;2.92;;;;;;;5.30;77.14;101714.19;4945299;28;20070;-76
2023/01/26 07:08:17;;;;;;;5.63;2.50;;;;;;;5.34;77.26;101723.75;4949779;28;20051;-76
2023/01/26 07:10:44;;;;;;;2.17;1.13;;;;;;;5.35;77.13;101722.88;4943263;28;20047;-77
2023/01/26 07:13:11;;;;;;;6.88;1.10;;;;;;;5.34;77.25;101734.13;4943291;28;20058;-77
2023/01/26 07:15:38;;;;;;;3.65;1.30;;;;;;;5.35;77.26;101735.84;4947338;28;20058;-75
2023/01/26 07:18:06;;;;;;;3.80;1.35;;;;;;;5.34;77.26;101734.97;4943530;28;20048;-74
2023/01/26 07:20:33;;;;;;;2.28;0.77;;;;;;;5.34;77.15;101741.88;4943464;28;20061;-74
2023/01/26 07:23:00;;;;;;;2.60;1.05;;;;;;;5.35;77.26;101744.50;4949679;28;20049;-80
2023/01/26 07:25:28;;;;;;;2.22;0.93;;;;;;;5.35;77.05;101753.97;4946545;28;20053;-76
2023/01/26 07:27:58;;;;;;;3.33;0.95;;;;;;;5.32;77.32;101751.34;4945823;28;20126;-74
2023/01/26 07:30:25;;;;;;;3.65;1.30;;;;;;;5.30;77.23;101759.09;4944411;29;20126;-75
2023/01/26 07:32:52;;;;;;;2.08;0.90;;;;;;;5.35;77.26;101772.13;4947911;28;20412;-75
2023/01/26 07:35:20;;;;;;;1.63;1.13;;;;;;;5.35;77.11;101777.28;4948156;28;20048;-75
2023/01/26 07:37:47;;;;;;;10.43;5.18;;;;;;;5.34;77.07;101772.97;4942989;28;20053;-75
2023/01/26 07:40:14;;;;;;;15.02;6.13;;;;;;;5.34;76.99;101778.16;4945539;29;20044;-73
2023/01/26 07:42:41;;;;;;;4.38;2.20;;;;;;;5.34;77.10;101775.56;4943165;28;20134;-73
2023/01/26 07:45:08;;;;;;;5.20;2.00;;;;;;;5.34;77.04;101780.75;4942765;29;20048;-73
2023/01/26 07:47:36;;;;;;;7.55;3.90;;;;;;;5.33;77.31;101786.78;4941064;28;20124;-73
2023/01/26 07:50:06;;;;;;;8.88;3.80;;;;;;;5.32;77.16;101783.31;4942292;29;20051;-73
2023/01/26 07:52:34;;;;;;;5.32;2.63;;;;;;;5.32;77.03;101785.00;4944645;28;20051;-73
2023/01/26 07:55:01;;;;;;;5.30;2.20;;;;;;;5.32;76.81;101790.19;4940221;28;20417;-74
2023/01/26 07:57:28;;;;;;;3.20;1.50;;;;;;;5.31;77.08;101794.50;4946436;28;20049;-74
2023/01/26 07:59:55;;;;;;;2.92;1.02;;;;;;;5.31;77.10;101789.31;4942124;28;20052;-74
2023/01/26 08:02:22;;;;;;;4.80;1.00;;;;;;;5.31;76.92;101788.47;4943866;28;20048;-73
2023/01/26 08:04:49;;;;;;;2.00;0.80;;;;;;;5.18;77.10;101775.28;4945570;28;20057;-79
2023/01/26 08:07:16;;;;;;;1.73;0.40;;;;;;;5.29;77.18;101800.50;4952081;28;20058;-78
2023/01/26 08:09:44;;;;;;;1.48;0.45;;;;;;;5.29;77.03;101813.47;4946211;28;20382;-80
2023/01/26 08:12:11;;;;;;;1.20;0.30;;;;;;;5.27;76.89;101813.44;4953525;29;20500;-78
2023/01/26 08:14:38;;;;;;;1.40;0.30;;;;;;;5.27;76.91;101820.34;4948960;28;20048;-76
2023/01/26 08:17:05;;;;;;;2.92;0.30;;;;;;;5.21;77.01;101817.59;4950968;28;20043;-77
2023/01/26 08:19:32;;;;;;;0.40;0.22;;;;;;;5.26;76.85;101834.13;4950150;28;20056;-78
2023/01/26 08:21:59;;;;;;;1.25;0.20;;;;;;;5.26;76.78;101836.72;4947870;29;20524;-78
2023/01/26 08:24:26;;;;;;;3.70;0.22;;;;;;;5.25;76.75;101845.34;4951268;28;20051;-78
2023/01/26 08:26:55;;;;;;;0.38;0.20;;;;;;;5.24;76.78;101846.19;4947639;28;20058;-77
2023/01/26 08:29:22;;;;;;;2.47;0.20;;;;;;;5.20;76.59;101842.63;4947054;28;20048;-78
2023/01/26 08:31:49;;;;;;;0.55;0.10;;;;;;;5.22;76.49;101840.09;4941909;29;20103;-77
2023/01/26 08:34:16;;;;;;;0.35;0.10;;;;;;;5.21;76.51;101856.47;4944237;28;20054;-79
2023/01/26 08:36:42;;;;;;;0.15;0.10;;;;;;;5.01;76.52;101840.50;4953604;29;20123;-81
2023/01/26 08:39:09;;;;;;;0.60;0.10;;;;;;;5.17;76.39;101864.16;4947905;28;20055;-79
2023/01/26 08:41:37;;;;;;;0.28;0.10;;;;;;;5.17;76.33;101869.34;4950718;28;20047;-79
2023/01/26 08:44:05;;;;;;;1.27;0.10;;;;;;;5.08;76.17;101863.13;4945726;28;20183;-76
2023/01/26 08:46:32;;;;;;;0.13;0.10;;;;;;;5.13;76.15;101877.91;4952157;28;20047;-76
2023/01/26 08:48:59;;;;;;;0.30;0.10;;;;;;;4.99;75.81;101860.31;4954333;29;20144;-78
2023/01/26 08:51:26;;;;;;;0.25;0.10;;;;;;;5.12;75.88;101891.72;4949848;28;20053;-75
2023/01/26 08:53:53;;;;;;;0.10;0.10;;;;;;;5.11;75.91;101896.84;4942732;28;20081;-76
2023/01/26 08:56:21;;;;;;;0.30;0.10;;;;;;;5.09;75.90;101896.78;4946996;28;20073;-76
2023/01/26 08:58:48;;;;;;;0.10;0.10;;;;;;;5.08;75.75;101910.59;4952574;28;20059;-77
2023/01/26 09:01:17;;;;;;;1.75;0.10;;;;;;;5.05;75.87;101910.53;4950162;28;20049;-77
2023/01/26 09:03:44;;;;;;;0.10;0.10;;;;;;;5.08;75.81;101904.56;4948358;28;20048;-75
2023/01/26 09:06:13;;;;;;;0.00;0.00;;;;;;;5.06;75.48;101911.41;4945418;28;20055;-75
2023/01/26 09:08:40;;;;;;;0.08;0.00;;;;;;;5.05;75.54;101918.31;4945978;28;20054;-76
2023/01/26 09:11:08;;;;;;;0.32;0.03;;;;;;;5.04;75.40;101918.25;4951497;28;20063;-75
2023/01/26 09:13:37;;;;;;;2.85;0.10;;;;;;;5.03;75.44;101916.50;4949805;29;20506;-76
2023/01/26 09:16:05;;;;;;;0.17;0.10;;;;;;;5.02;75.50;101928.59;4944570;28;20090;-76
2023/01/26 09:18:33;;;;;;;0.85;0.00;;;;;;;5.00;75.07;101916.44;4938623;28;20051;-73
2023/01/26 09:21:05;;;;;;;0.00;0.00;;;;;;;4.97;75.24;101923.28;4939755;28;20047;-74
2023/01/26 09:23:32;;;;;;;0.82;0.05;;;;;;;4.96;75.11;101931.03;4943238;28;20051;-74
2023/01/26 09:25:59;;;;;;;0.63;0.20;;;;;;;4.93;75.28;101929.25;4943706;28;20051;-79
2023/01/26 09:28:26;;;;;;;2.35;0.10;;;;;;;4.92;75.00;101936.97;4946468;29;20088;-76
2023/01/26 09:30:53;;;;;;;0.20;0.10;;;;;;;4.90;75.01;101931.78;4939879;28;20504;-76
2023/01/26 09:33:21;;;;;;;0.77;0.10;;;;;;;4.90;75.12;101930.91;4948371;28;20047;-77
2023/01/26 09:35:50;;;;;;;1.55;0.10;;;;;;;4.87;75.14;101933.44;4938809;28;20679;-78
2023/01/26 09:38:17;;;;;;;0.52;0.10;;;;;;;4.87;74.93;101947.25;4940239;28;20123;-76
2023/01/26 09:40:56;;;;;;;0.10;0.00;;;;;;;4.83;74.23;101939.34;4953182;28;20053;-77
2023/01/26 09:43:32;;;;;;;0.38;0.00;;;;;;;4.81;74.45;101953.97;4941755;28;20051;-75
2023/01/26 09:46:09;;;;;;;0.05;0.00;;;;;;;4.79;74.48;101958.25;4945871;28;20401;-76
2023/01/26 09:48:43;;;;;;;0.10;0.10;;;;;;;4.68;74.59;101945.91;4944384;29;20043;-75
2023/01/26 09:51:19;;;;;;;0.25;0.00;;;;;;;4.65;74.52;101939.78;4947488;28;20049;-79
2023/01/26 09:53:53;;;;;;;1.20;0.00;;;;;;;4.71;74.58;101956.34;4948034;28;20079;-78
2023/01/26 09:56:24;;;;;;;0.00;0.00;;;;;;;4.72;74.15;101968.47;4947160;29;20047;-79
2023/01/26 09:58:56;;;;;;;0.50;0.03;;;;;;;4.71;73.89;101965.81;4950649;29;20052;-77
2023/01/26 10:01:29;;;;;;;0.10;0.00;;;;;;;4.69;74.10;101968.34;4946547;28;20059;-75
2023/01/26 10:04:04;;;;;;;6.60;0.22;;;;;;;4.68;74.24;101966.63;4943324;29;20044;-76
2023/01/26 10:06:33;;;;;;;1.55;0.10;;;;;;;4.66;74.34;101965.69;4946125;29;20174;-77
2023/01/26 10:09:06;;;;;;;1.08;0.00;;;;;;;4.66;74.30;101976.06;4942614;28;20523;-76
2023/01/26 10:11:37;;;;;;;1.48;0.08;;;;;;;4.63;74.40;101978.56;4947170;28;20058;-76
2023/01/26 10:14:11;;;;;;;0.00;0.00;;;;;;;4.64;74.38;101985.50;4943943;28;20052;-72
2023/01/26 10:16:38;;;;;;;0.77;0.00;;;;;;;4.63;74.18;101988.91;4941580;28;20055;-71
2023/01/26 10:19:11;;;;;;;0.70;0.00;;;;;;;4.63;74.08;101991.50;4932860;28;20051;-70
2023/01/26 10:21:44;;;;;;;0.73;0.05;;;;;;;4.63;74.20;102001.84;4928548;28;20054;-73
2023/01/26 10:24:14;;;;;;;0.30;0.10;;;;;;;4.62;74.12;102007.00;4939436;28;20053;-71
2023/01/26 10:26:42;;;;;;;0.00;0.00;;;;;;;4.58;73.87;102008.66;4938517;28;20050;-73
2023/01/26 10:29:15;;;;;;;0.00;0.00;;;;;;;4.58;73.93;102002.56;4943408;28;20424;-73
2023/01/26 10:31:42;;;;;;;0.20;0.10;;;;;;;4.56;73.83;102010.31;4945235;28;20051;-73
2023/01/26 10:34:14;;;;;;;1.55;0.00;;;;;;;4.56;73.99;102012.03;4946824;28;20059;-73
2023/01/26 10:36:45;;;;;;;0.40;0.00;;;;;;;4.55;73.95;102026.66;4949976;29;20056;-73
2023/01/26 10:39:14;;;;;;;1.10;0.00;;;;;;;4.28;73.74;101990.59;4947267;28;20047;-73
2023/01/26 10:41:55;;;;;;;0.00;0.00;;;;;;;4.48;73.79;102032.53;4946444;28;20051;-73
2023/01/26 10:44:28;;;;;;;1.67;0.10;;;;;;;4.51;73.46;102040.38;4948560;28;20043;-74
2023/01/26 10:47:07;;;;;;;0.63;0.10;;;;;;;4.50;73.39;102049.84;4943940;28;20055;-75
2023/01/26 10:49:34;;;;;;;0.85;0.10;;;;;;;4.47;73.44;102056.66;4950799;29;20057;-75
2023/01/26 10:52:16;;;;;;;0.22;0.00;;;;;;;4.46;72.92;102062.66;4945188;28;20419;-75
2023/01/26 10:54:43;;;;;;;0.20;0.10;;;;;;;4.41;72.82;102053.88;4951125;28;20504;-73
2023/01/26 10:57:27;;;;;;;0.30;0.10;;;;;;;4.39;72.89;102064.19;4926556;28;20114;-73
2023/01/26 10:59:56;;;;;;;0.20;0.10;;;;;;;4.36;72.41;102066.69;4943123;29;20493;-73
2023/01/26 11:02:27;;;;;;;0.80;0.10;;;;;;;4.35;72.42;102064.06;4947761;28;20043;-74
2023/01/26 11:05:15;;;;;;;0.17;0.00;;;;;;;4.34;72.48;102064.91;4946578;29;20054;-73
2023/01/26 11:07:44;;;;;;;2.40;0.00;;;;;;;4.33;72.05;102076.09;4945373;29;20054;-73
2023/01/26 11:10:22;;;;;;;1.08;0.10;;;;;;;4.30;71.40;102066.53;4948292;28;20047;-74
2023/01/26 11:12:49;;;;;;;1.50;0.47;;;;;;;4.28;71.62;102074.25;4943148;28;20146;-73
2023/01/26 11:15:18;;;;;;;0.05;0.00;;;;;;;4.26;71.63;102078.47;4947509;29;20040;-75
2023/01/26 11:17:52;;;;;;;1.80;0.00;;;;;;;4.26;71.59;102087.97;4945153;29;20408;-74
2023/01/26 11:20:45;;;;;;;1.17;0.00;;;;;;;4.25;71.35;102083.63;4945650;28;20048;-74
2023/01/26 11:23:23;;;;;;;1.45;0.00;;;;;;;4.24;71.49;102085.34;4944911;29;20067;-74
2023/01/26 11:26:12;;;;;;;0.40;0.00;;;;;;;4.23;71.72;102085.28;4944713;29;20060;-73
2023/01/26 11:28:54;;;;;;;2.08;0.00;;;;;;;4.22;71.11;102089.59;4948423;28;20755;-74
2023/01/26 11:31:33;;;;;;;0.77;0.30;;;;;;;4.22;71.43;102099.06;4944116;28;20073;-74
2023/01/26 11:34:12;;;;;;;0.52;0.10;;;;;;;4.20;71.39;102093.84;4946009;28;20060;-74
2023/01/26 11:36:48;;;;;;;0.57;0.00;;;;;;;4.21;71.55;102092.13;4947877;28;20077;-74
2023/01/26 11:39:26;;;;;;;2.13;0.10;;;;;;;4.11;71.20;102078.06;4944693;28;20047;-74
2023/01/26 11:42:09;;;;;;;0.17;0.08;;;;;;;4.19;71.48;102102.44;4944074;28;20055;-73
2023/01/26 11:44:47;;;;;;;0.10;0.03;;;;;;;4.18;71.09;102110.13;4938814;28;20526;-74
2023/01/26 11:47:30;;;;;;;0.65;0.00;;;;;;;4.17;71.21;102122.19;4942488;28;20390;-73
2023/01/26 11:50:26;;;;;;;0.22;0.00;;;;;;;4.16;70.97;102119.59;4944977;28;20054;-69
2023/01/26 11:53:01;;;;;;;;;;;;;;;4.14;71.14;102119.53;4945502;28;20053;-71
2023/01/26 11:55:45;;;;;;;1.27;0.00;;;;;;;4.11;70.82;102122.03;4936166;28;20436;-72
2023/01/26 11:58:27;;;;;;;0.98;0.65;;;;;;;4.06;70.55;102118.41;4943608;29;20046;-75
2023/01/26 12:00:57;;;;;;;1.38;0.03;;;;;;;4.06;69.75;102121.00;4944582;28;20049;-72
2023/01/26 12:03:30;;;;;;;1.08;0.00;;;;;;;4.05;69.38;102137.34;4942651;28;20053;-73
2023/01/26 12:06:01;;;;;;;0.28;0.00;;;;;;;4.03;69.42;102132.13;4943934;29;20057;-73
2023/01/26 12:08:38;;;;;;;0.73;0.00;;;;;;;4.02;69.79;102126.94;4938739;28;20043;-73
2023/01/26 12:11:24;;;;;;;1.88;0.00;;;;;;;4.01;69.94;102133.81;4942459;28;20083;-72
2023/01/26 12:14:02;;;;;;;0.57;0.00;;;;;;;4.00;69.12;102128.56;4940803;28;20062;-74
2023/01/26 12:16:41;;;;;;;1.45;0.00;;;;;;;3.98;69.17;102131.09;4946115;28;20048;-72
2023/01/26 12:19:16;;;;;;;1.40;1.08;;;;;;;3.98;69.05;102140.56;4942266;28;20047;-73
2023/01/26 12:21:45;;;;;;;0.65;0.05;;;;;;;3.89;69.31;102122.19;4944529;28;20085;-72
2023/01/26 12:24:19;;;;;;;1.23;0.00;;;;;;;3.96;68.21;102135.38;4944228;28;20065;-73
2023/01/26 12:26:52;;;;;;;3.28;0.03;;;;;;;3.95;68.71;102138.75;4940883;29;20110;-73
2023/01/26 12:29:25;;;;;;;1.75;0.10;;;;;;;3.94;68.58;102139.59;4940565;28;20039;-76
2023/01/26 12:31:57;;;;;;;3.13;0.10;;;;;;;3.93;68.72;102149.91;4944389;28;20047;-75
2023/01/26 12:34:27;;;;;;;2.22;0.10;;;;;;;3.93;69.02;102137.00;4947502;28;20415;-74